createdAt,value
2023-02-13T00:01:33.026Z,8.80
2023-02-13T00:04:01.771Z,8.90
2023-02-13T00:06:31.902Z,8.80
2023-02-13T00:09:00.439Z,8.80
2023-02-13T00:11:29.108Z,8.80
2023-02-13T00:13:57.676Z,8.80
2023-02-13T00:16:26.245Z,8.80
2023-02-13T00:18:54.896Z,8.80
2023-02-13T00:21:23.528Z,8.80
2023-02-13T00:23:53.517Z,8.80
2023-02-13T00:26:22.032Z,8.80
2023-02-13T00:28:50.571Z,8.70
2023-02-13T00:31:21.313Z,8.80
2023-02-13T00:33:51.004Z,8.90
2023-02-13T00:36:22.550Z,8.80
2023-02-13T00:38:52.870Z,8.80
2023-02-13T00:41:22.679Z,8.80
2023-02-13T00:43:53.474Z,8.80
2023-02-13T00:46:22.150Z,8.80
2023-02-13T00:48:50.763Z,8.80
2023-02-13T00:51:19.325Z,8.80
2023-02-13T00:53:47.839Z,8.80
2023-02-13T00:56:18.895Z,8.80
2023-02-13T00:58:47.653Z,8.80
2023-02-13T01:01:16.798Z,8.80
2023-02-13T01:03:45.470Z,8.80
2023-02-13T01:06:14.027Z,8.80
2023-02-13T01:08:42.707Z,8.90
2023-02-13T01:11:11.281Z,8.90
2023-02-13T01:13:41.275Z,8.90
2023-02-13T01:16:09.914Z,8.80
2023-02-13T01:18:38.602Z,8.80
2023-02-13T01:21:09.637Z,8.70
2023-02-13T01:23:39.862Z,8.70
2023-02-13T01:26:12.063Z,8.60
2023-02-13T01:28:42.086Z,8.60
2023-02-13T01:31:10.742Z,8.60
2023-02-13T01:33:39.378Z,8.60
2023-02-13T01:36:10.476Z,8.60
2023-02-13T01:38:40.214Z,8.60
2023-02-13T01:41:09.551Z,8.60
2023-02-13T01:43:48.127Z,8.60
2023-02-13T01:46:19.800Z,8.60
2023-02-13T01:48:50.562Z,8.60
2023-02-13T01:51:23.332Z,8.60
2023-02-13T01:53:57.165Z,8.50
2023-02-13T01:56:30.713Z,8.50
2023-02-13T01:59:03.611Z,8.50
2023-02-13T02:01:33.646Z,8.40
2023-02-13T02:04:08.803Z,8.40
2023-02-13T02:06:41.156Z,8.50
2023-02-13T02:09:14.557Z,8.50
2023-02-13T02:11:49.968Z,8.50
2023-02-13T02:14:20.611Z,8.50
2023-02-13T02:16:49.183Z,8.50
2023-02-13T02:19:30.382Z,8.40
2023-02-13T02:22:24.396Z,8.40
2023-02-13T02:25:18.513Z,8.40
2023-02-13T02:28:11.510Z,8.40
2023-02-13T02:31:06.807Z,8.40
2023-02-13T02:33:49.750Z,8.40
2023-02-13T02:36:30.724Z,8.40
2023-02-13T02:39:07.168Z,8.40
2023-02-13T02:41:54.663Z,8.40
2023-02-13T02:44:37.707Z,8.40
2023-02-13T02:47:30.207Z,8.40
2023-02-13T02:50:14.314Z,8.40
2023-02-13T02:53:00.427Z,8.30
2023-02-13T02:55:37.296Z,8.30
2023-02-13T02:58:31.864Z,8.30
2023-02-13T03:01:21.582Z,8.30
2023-02-13T03:04:09.370Z,8.30
2023-02-13T03:06:45.456Z,8.30
2023-02-13T03:09:35.297Z,8.30
2023-02-13T03:12:22.136Z,8.30
2023-02-13T03:14:50.778Z,8.30
2023-02-13T03:17:38.620Z,8.30
2023-02-13T03:20:37.384Z,8.30
2023-02-13T03:23:14.958Z,8.30
2023-02-13T03:26:15.823Z,8.30
2023-02-13T03:29:10.841Z,8.30
2023-02-13T03:31:50.631Z,8.30
2023-02-13T03:34:22.759Z,8.20
2023-02-13T03:37:18.181Z,8.20
2023-02-13T03:39:57.619Z,8.30
2023-02-13T03:42:31.725Z,8.20
2023-02-13T03:45:22.219Z,8.20
2023-02-13T03:47:54.032Z,8.10
2023-02-13T03:50:22.510Z,8.10
2023-02-13T03:52:54.783Z,8.10
2023-02-13T03:55:46.744Z,8.00
2023-02-13T03:58:36.715Z,8.00
2023-02-13T04:01:09.208Z,8.00
2023-02-13T04:03:47.107Z,8.00
2023-02-13T04:06:18.122Z,7.90
2023-02-13T04:08:47.000Z,7.90
2023-02-13T04:11:22.594Z,7.90
2023-02-13T04:13:57.697Z,7.80
2023-02-13T04:16:33.105Z,7.80
2023-02-13T04:19:02.733Z,7.70
2023-02-13T04:21:34.507Z,7.60
2023-02-13T04:24:03.290Z,7.60
2023-02-13T04:26:36.730Z,7.50
2023-02-13T04:29:05.535Z,7.40
2023-02-13T04:31:34.196Z,7.30
2023-02-13T04:34:02.918Z,7.30
2023-02-13T04:36:31.699Z,7.30
2023-02-13T04:39:00.301Z,7.20
2023-02-13T04:41:28.883Z,7.20
2023-02-13T04:43:58.959Z,7.10
2023-02-13T04:46:27.592Z,7.10
2023-02-13T04:48:56.220Z,7.00
2023-02-13T04:51:24.742Z,7.00
2023-02-13T04:53:53.286Z,7.00
2023-02-13T04:56:21.882Z,7.00
2023-02-13T04:58:50.427Z,6.90
2023-02-13T05:01:20.370Z,6.80
2023-02-13T05:03:49.449Z,6.90
2023-02-13T05:06:18.034Z,6.80
2023-02-13T05:08:46.621Z,6.80
2023-02-13T05:11:15.284Z,6.80
2023-02-13T05:13:43.843Z,6.80
2023-02-13T05:16:12.495Z,6.80
2023-02-13T05:18:42.472Z,6.80
2023-02-13T05:21:28.509Z,6.80
2023-02-13T05:23:57.040Z,6.80
2023-02-13T05:26:25.754Z,6.70
2023-02-13T05:29:11.677Z,6.70
2023-02-13T05:31:40.361Z,6.60
2023-02-13T05:34:10.268Z,6.60
2023-02-13T05:36:39.927Z,6.50
2023-02-13T05:39:09.187Z,6.50
2023-02-13T05:41:37.737Z,6.40
2023-02-13T05:44:06.613Z,6.40
2023-02-13T05:46:35.295Z,6.30
2023-02-13T05:49:04.903Z,6.30
2023-02-13T05:51:34.862Z,6.30
2023-02-13T05:54:03.613Z,6.30
2023-02-13T05:56:32.176Z,6.20
2023-02-13T05:59:01.022Z,6.20
2023-02-13T06:01:29.531Z,6.20
2023-02-13T06:03:59.642Z,6.10
2023-02-13T06:06:29.112Z,6.10
2023-02-13T06:08:59.106Z,6.10
2023-02-13T06:11:27.680Z,6.00
2023-02-13T06:13:56.280Z,6.00
2023-02-13T06:16:24.926Z,6.00
2023-02-13T06:18:53.599Z,5.90
2023-02-13T06:21:22.692Z,5.90
2023-02-13T06:23:51.318Z,5.90
2023-02-13T06:26:21.223Z,5.80
2023-02-13T06:28:49.964Z,5.80
2023-02-13T06:31:18.574Z,5.70
2023-02-13T06:33:47.230Z,5.70
2023-02-13T06:36:15.838Z,5.70
2023-02-13T06:38:44.551Z,5.70
2023-02-13T06:41:13.100Z,5.60
2023-02-13T06:43:42.973Z,5.60
2023-02-13T06:46:11.744Z,5.50
2023-02-13T06:48:40.414Z,5.50
2023-02-13T06:51:08.944Z,5.60
2023-02-13T06:53:37.623Z,5.50
2023-02-13T06:56:07.140Z,5.50
2023-02-13T06:58:35.992Z,5.50
2023-02-13T07:01:06.266Z,5.60
2023-02-13T07:03:34.935Z,5.60
2023-02-13T07:06:03.533Z,5.50
2023-02-13T07:08:32.106Z,5.70
2023-02-13T07:11:00.735Z,5.60
2023-02-13T07:13:29.375Z,5.60
2023-02-13T07:16:02.187Z,5.60
2023-02-13T07:18:32.165Z,5.60
2023-02-13T07:21:00.821Z,5.50
2023-02-13T07:23:29.372Z,5.50
2023-02-13T07:26:00.507Z,5.50
2023-02-13T07:28:30.092Z,5.60
2023-02-13T07:30:59.483Z,5.60
2023-02-13T07:33:28.167Z,5.60
2023-02-13T07:35:58.137Z,5.70
2023-02-13T07:38:26.768Z,5.60
2023-02-13T07:40:55.798Z,5.60
2023-02-13T07:43:25.004Z,5.60
2023-02-13T07:45:55.666Z,5.70
2023-02-13T07:48:24.816Z,5.70
2023-02-13T07:50:53.628Z,5.80
2023-02-13T07:53:23.658Z,5.90
2023-02-13T07:55:52.396Z,5.90
2023-02-13T07:58:20.976Z,6.00
2023-02-13T08:00:49.604Z,6.10
2023-02-13T08:03:18.393Z,6.10
2023-02-13T08:05:49.574Z,6.10
2023-02-13T08:08:18.250Z,6.10
2023-02-13T08:11:05.533Z,6.20
2023-02-13T08:13:34.213Z,6.30
2023-02-13T08:16:02.811Z,6.30
2023-02-13T08:18:31.389Z,6.40
2023-02-13T08:20:59.927Z,6.50
2023-02-13T08:23:28.496Z,6.60
2023-02-13T08:26:01.319Z,6.60
2023-02-13T08:28:35.160Z,6.60
2023-02-13T08:31:03.901Z,6.70
2023-02-13T08:33:32.492Z,6.80
2023-02-13T08:36:03.676Z,6.90
2023-02-13T08:38:32.200Z,6.90
2023-02-13T08:41:02.284Z,7.00
2023-02-13T08:43:30.862Z,7.00
2023-02-13T08:46:00.906Z,7.10
2023-02-13T08:48:30.596Z,7.20
2023-02-13T08:50:59.349Z,7.30
2023-02-13T08:53:27.928Z,7.30
2023-02-13T08:55:57.890Z,7.30
2023-02-13T08:58:28.320Z,7.40
2023-02-13T09:00:57.119Z,7.40
2023-02-13T09:03:25.823Z,7.50
2023-02-13T09:05:54.433Z,7.60
2023-02-13T09:08:24.374Z,7.70
2023-02-13T09:10:57.792Z,7.70
2023-02-13T09:13:27.997Z,7.80
2023-02-13T09:15:59.959Z,7.90
2023-02-13T09:18:29.342Z,8.00
2023-02-13T09:21:02.231Z,8.10
2023-02-13T09:23:37.801Z,8.20
2023-02-13T09:26:08.633Z,8.20
2023-02-13T09:28:39.325Z,8.30
2023-02-13T09:31:09.037Z,8.40
2023-02-13T09:33:38.045Z,8.40
2023-02-13T09:36:07.551Z,8.40
2023-02-13T09:38:36.590Z,8.50
2023-02-13T09:41:08.748Z,8.60
2023-02-13T09:43:45.637Z,8.60
2023-02-13T09:46:18.172Z,8.70
2023-02-13T09:48:50.709Z,8.80
2023-02-13T09:51:23.307Z,8.80
2023-02-13T09:53:55.682Z,8.90
2023-02-13T09:56:49.890Z,9.00
2023-02-13T09:59:35.991Z,9.10
2023-02-13T10:02:21.384Z,9.20
2023-02-13T10:04:58.113Z,9.30
2023-02-13T10:07:35.323Z,9.30
2023-02-13T10:10:13.028Z,9.40
2023-02-13T10:12:57.247Z,9.50
2023-02-13T10:15:34.814Z,9.60
2023-02-13T10:18:06.427Z,9.60
2023-02-13T10:20:40.957Z,9.70
2023-02-13T10:23:20.006Z,9.80
2023-02-13T10:25:53.605Z,9.80
2023-02-13T10:28:33.339Z,9.90
2023-02-13T10:31:08.322Z,10.00
2023-02-13T10:33:45.089Z,10.10
2023-02-13T10:36:19.178Z,10.10
2023-02-13T10:38:57.145Z,10.20
2023-02-13T10:41:31.964Z,10.30
2023-02-13T10:44:20.857Z,10.30
2023-02-13T10:47:00.901Z,10.40
2023-02-13T10:49:47.569Z,10.50
2023-02-13T10:52:27.037Z,10.60
2023-02-13T10:55:06.514Z,10.70
2023-02-13T10:57:54.653Z,10.70
2023-02-13T11:00:30.872Z,10.70
2023-02-13T11:03:01.026Z,10.80
2023-02-13T11:05:33.201Z,10.90
2023-02-13T11:08:02.261Z,10.90
2023-02-13T11:10:30.845Z,10.90
2023-02-13T11:13:18.206Z,11.00
2023-02-13T11:15:59.439Z,11.00
2023-02-13T11:18:34.043Z,11.10
2023-02-13T11:21:08.848Z,11.10
2023-02-13T11:23:45.089Z,11.20
2023-02-13T11:26:21.977Z,11.30
2023-02-13T11:28:55.007Z,11.30
2023-02-13T11:31:28.024Z,11.40
2023-02-13T11:33:59.396Z,11.50
2023-02-13T11:36:30.733Z,11.60
2023-02-13T11:39:01.482Z,11.60
2023-02-13T11:41:31.223Z,11.70
2023-02-13T11:44:02.352Z,11.70
2023-02-13T11:46:43.974Z,11.70
2023-02-13T11:49:19.989Z,11.80
2023-02-13T11:51:51.014Z,11.90
2023-02-13T11:54:26.631Z,11.90
2023-02-13T11:57:05.954Z,12.00
2023-02-13T11:59:42.590Z,12.00
2023-02-13T12:02:16.454Z,12.10
2023-02-13T12:04:47.180Z,12.20
2023-02-13T12:07:20.085Z,12.20
2023-02-13T12:09:52.914Z,12.20
2023-02-13T12:12:28.430Z,12.20
2023-02-13T12:14:58.239Z,12.30
2023-02-13T12:17:32.521Z,12.30
2023-02-13T12:20:03.093Z,12.40
2023-02-13T12:22:37.827Z,12.40
2023-02-13T12:25:38.896Z,12.40
2023-02-13T12:28:20.958Z,12.40
2023-02-13T12:31:05.707Z,12.50
2023-02-13T12:34:00.654Z,12.60
2023-02-13T12:36:43.171Z,12.60
2023-02-13T12:39:19.565Z,12.60
2023-02-13T12:42:06.218Z,12.70
2023-02-13T12:45:03.484Z,12.70
2023-02-13T12:47:37.383Z,12.80
2023-02-13T12:50:33.054Z,12.90
2023-02-13T12:53:23.560Z,12.90
2023-02-13T12:56:13.738Z,12.90
2023-02-13T12:59:01.313Z,13.00
2023-02-13T13:02:07.280Z,13.00
2023-02-13T13:04:50.998Z,13.00
2023-02-13T13:07:51.682Z,13.10
2023-02-13T13:10:35.003Z,13.00
2023-02-13T13:13:15.089Z,13.10
2023-02-13T13:15:53.375Z,13.10
2023-02-13T13:18:35.854Z,13.10
2023-02-13T13:21:17.957Z,13.10
2023-02-13T13:23:57.274Z,13.10
2023-02-13T13:26:35.948Z,13.10
2023-02-13T13:29:10.935Z,13.00
2023-02-13T13:31:40.016Z,13.00
2023-02-13T13:34:14.546Z,13.10
2023-02-13T13:36:49.736Z,13.10
2023-02-13T13:39:31.186Z,13.10
2023-02-13T13:42:09.869Z,13.20
2023-02-13T13:45:04.858Z,13.20
2023-02-13T13:47:53.741Z,13.20
2023-02-13T13:50:25.040Z,13.20
2023-02-13T13:53:12.256Z,13.20
2023-02-13T13:56:00.921Z,13.30
2023-02-13T13:58:37.492Z,13.20
2023-02-13T14:01:32.115Z,13.20
2023-02-13T14:04:03.631Z,13.30
2023-02-13T14:07:05.284Z,13.20
2023-02-13T14:09:41.917Z,13.20
2023-02-13T14:12:39.557Z,13.30
2023-02-13T14:15:50.791Z,13.30
2023-02-13T14:18:23.718Z,13.30
2023-02-13T14:20:54.005Z,13.20
2023-02-13T14:23:34.402Z,13.20
2023-02-13T14:26:27.546Z,13.20
2023-02-13T14:29:00.669Z,13.10
2023-02-13T14:31:32.842Z,13.10
2023-02-13T14:34:04.031Z,13.10
2023-02-13T14:36:34.835Z,13.00
2023-02-13T14:39:06.714Z,13.00
2023-02-13T14:41:47.490Z,13.00
2023-02-13T14:44:20.217Z,13.00
2023-02-13T14:46:52.048Z,13.00
2023-02-13T14:49:24.246Z,13.00
2023-02-13T14:51:55.204Z,13.00
2023-02-13T14:54:28.966Z,13.00
2023-02-13T14:57:07.117Z,13.00
2023-02-13T14:59:39.774Z,13.00
2023-02-13T15:02:22.006Z,13.00
2023-02-13T15:04:55.081Z,12.90
2023-02-13T15:07:26.494Z,12.90
2023-02-13T15:10:00.507Z,12.90
2023-02-13T15:12:31.687Z,12.80
2023-02-13T15:15:02.237Z,12.90
2023-02-13T15:17:38.558Z,12.80
2023-02-13T15:20:19.493Z,12.80
2023-02-13T15:22:48.785Z,12.80
2023-02-13T15:25:26.685Z,12.70
2023-02-13T15:27:56.565Z,12.70
2023-02-13T15:30:26.902Z,12.60
2023-02-13T15:32:59.080Z,12.60
2023-02-13T15:35:30.905Z,12.60
2023-02-13T15:37:59.801Z,12.50
2023-02-13T15:40:30.798Z,12.50
2023-02-13T15:43:00.372Z,12.50
2023-02-13T15:45:31.869Z,12.40
2023-02-13T15:48:01.769Z,12.40
2023-02-13T15:50:32.963Z,12.30
2023-02-13T15:53:03.747Z,12.20
2023-02-13T15:55:36.578Z,12.20
2023-02-13T15:58:05.456Z,12.20
2023-02-13T16:00:37.358Z,12.10
2023-02-13T16:03:09.357Z,12.10
2023-02-13T16:05:41.385Z,12.00
2023-02-13T16:08:32.351Z,12.00
2023-02-13T16:11:27.677Z,11.90
2023-02-13T16:14:07.172Z,11.80
2023-02-13T16:16:43.149Z,11.80
2023-02-13T16:19:30.936Z,11.80
2023-02-13T16:22:02.683Z,11.70
2023-02-13T16:24:31.768Z,11.70
2023-02-13T16:27:00.658Z,11.60
2023-02-13T16:29:29.522Z,11.50
2023-02-13T16:32:11.014Z,11.40
2023-02-13T16:34:41.069Z,11.40
2023-02-13T16:37:31.919Z,11.40
2023-02-13T16:40:33.127Z,11.30
2023-02-13T16:43:36.680Z,11.20
2023-02-13T16:46:14.349Z,11.10
2023-02-13T16:48:44.085Z,11.10
2023-02-13T16:51:14.413Z,11.00
2023-02-13T16:53:43.339Z,11.00
2023-02-13T16:56:12.663Z,10.90
2023-02-13T16:58:41.425Z,10.90
2023-02-13T17:01:18.210Z,10.90
2023-02-13T17:03:47.883Z,10.80
2023-02-13T17:06:17.846Z,10.70
2023-02-13T17:08:46.324Z,10.60
2023-02-13T17:11:19.993Z,10.60
2023-02-13T17:13:48.501Z,10.50
2023-02-13T17:16:17.151Z,10.50
2023-02-13T17:18:45.837Z,10.40
2023-02-13T17:21:15.237Z,10.30
2023-02-13T17:23:45.143Z,10.30
2023-02-13T17:26:13.683Z,10.20
2023-02-13T17:28:42.440Z,10.20
2023-02-13T17:31:13.937Z,10.10
2023-02-13T17:33:43.241Z,10.00
2023-02-13T17:36:13.632Z,9.90
2023-02-13T17:38:42.227Z,9.90
2023-02-13T17:41:16.017Z,9.80
2023-02-13T17:43:44.620Z,9.70
2023-02-13T17:46:15.294Z,9.70
2023-02-13T17:48:43.887Z,9.70
2023-02-13T17:51:14.857Z,9.60
2023-02-13T17:53:43.444Z,9.60
2023-02-13T17:56:13.377Z,9.50
2023-02-13T17:58:42.195Z,9.40
2023-02-13T18:01:11.436Z,9.40
2023-02-13T18:03:40.474Z,9.30
2023-02-13T18:06:12.622Z,9.20
2023-02-13T18:08:41.244Z,9.10
2023-02-13T18:11:14.435Z,9.10
2023-02-13T18:13:48.037Z,9.00
2023-02-13T18:16:17.251Z,9.00
2023-02-13T18:18:45.835Z,8.90
2023-02-13T18:21:14.422Z,9.00
2023-02-13T18:23:43.042Z,9.00
2023-02-13T18:26:13.403Z,9.10
2023-02-13T18:28:42.005Z,9.10
2023-02-13T18:31:11.615Z,9.20
2023-02-13T18:33:40.224Z,9.30
2023-02-13T18:36:08.850Z,9.30
2023-02-13T18:38:37.535Z,9.30
2023-02-13T18:41:06.323Z,9.30
2023-02-13T18:43:36.216Z,9.20
2023-02-13T18:46:05.109Z,9.30
2023-02-13T18:48:33.728Z,9.20
2023-02-13T18:51:02.828Z,9.20
2023-02-13T18:53:31.771Z,9.10
2023-02-13T18:56:01.722Z,9.10
2023-02-13T18:58:30.283Z,9.10
2023-02-13T19:01:06.483Z,9.00
2023-02-13T19:03:35.031Z,9.00
2023-02-13T19:06:08.021Z,9.00
2023-02-13T19:08:37.393Z,9.00
2023-02-13T19:11:07.126Z,9.00
2023-02-13T19:13:35.807Z,8.90
2023-02-13T19:16:07.076Z,8.80
2023-02-13T19:18:38.299Z,8.80
2023-02-13T19:21:07.663Z,8.70
2023-02-13T19:23:37.142Z,8.60
2023-02-13T19:26:06.950Z,8.60
2023-02-13T19:28:35.848Z,8.50
2023-02-13T19:31:08.665Z,8.50
2023-02-13T19:33:38.334Z,8.50
2023-02-13T19:36:09.713Z,8.50
2023-02-13T19:38:38.672Z,8.40
2023-02-13T19:41:08.393Z,8.40
2023-02-13T19:43:36.978Z,8.40
2023-02-13T19:46:10.114Z,8.40
2023-02-13T19:48:38.683Z,8.40
2023-02-13T19:51:08.349Z,8.40
2023-02-13T19:53:37.191Z,8.40
2023-02-13T19:56:06.996Z,8.40
2023-02-13T19:58:37.555Z,8.40
2023-02-13T20:01:12.426Z,8.50
2023-02-13T20:03:41.297Z,8.50
2023-02-13T20:06:12.258Z,8.50
2023-02-13T20:08:42.970Z,8.60
2023-02-13T20:11:13.258Z,8.60
2023-02-13T20:13:42.514Z,8.60
2023-02-13T20:16:14.517Z,8.50
2023-02-13T20:18:43.435Z,8.60
2023-02-13T20:21:14.122Z,8.60
2023-02-13T20:23:48.293Z,8.60
2023-02-13T20:26:17.380Z,8.60
2023-02-13T20:28:47.787Z,8.60
2023-02-13T20:31:20.074Z,8.70
2023-02-13T20:33:49.911Z,8.70
2023-02-13T20:36:20.641Z,8.70
2023-02-13T20:38:50.233Z,8.60
2023-02-13T20:41:21.603Z,8.60
2023-02-13T20:43:50.487Z,8.60
2023-02-13T20:46:20.657Z,8.60
2023-02-13T20:48:50.141Z,8.60
2023-02-13T20:51:19.621Z,8.60
2023-02-13T20:53:48.239Z,8.60
2023-02-13T20:56:20.549Z,8.60
2023-02-13T20:58:50.732Z,8.60
2023-02-13T21:01:22.415Z,8.60
2023-02-13T21:03:54.826Z,8.60
2023-02-13T21:06:25.092Z,8.50
2023-02-13T21:08:54.334Z,8.50
2023-02-13T21:11:23.088Z,8.50
2023-02-13T21:13:52.351Z,8.40
2023-02-13T21:16:25.726Z,8.40
2023-02-13T21:18:56.070Z,8.30
2023-02-13T21:21:26.676Z,8.30
2023-02-13T21:23:56.432Z,8.30
2023-02-13T21:26:25.768Z,8.20
2023-02-13T21:28:54.975Z,8.20
2023-02-13T21:31:29.184Z,8.20
2023-02-13T21:34:00.331Z,8.10
2023-02-13T21:36:28.921Z,8.00
2023-02-13T21:38:57.427Z,8.00
2023-02-13T21:41:26.206Z,8.00
2023-02-13T21:43:55.025Z,8.00
2023-02-13T21:46:26.682Z,8.00
2023-02-13T21:48:57.063Z,8.00
2023-02-13T21:51:27.596Z,7.90
2023-02-13T21:53:56.276Z,7.80
2023-02-13T21:56:26.702Z,7.80
2023-02-13T21:58:55.536Z,7.70
2023-02-13T22:01:27.638Z,7.50
2023-02-13T22:04:00.288Z,7.50
2023-02-13T22:06:30.448Z,7.40
2023-02-13T22:09:00.122Z,7.30
2023-02-13T22:11:29.742Z,7.20
2023-02-13T22:14:01.048Z,7.10
2023-02-13T22:16:32.444Z,7.10
2023-02-13T22:19:01.863Z,7.00
2023-02-13T22:21:32.349Z,7.00
2023-02-13T22:24:01.238Z,7.00
2023-02-13T22:26:31.550Z,7.00
2023-02-13T22:29:02.397Z,6.90
2023-02-13T22:31:32.526Z,6.80
2023-02-13T22:34:04.228Z,6.80
2023-02-13T22:36:33.283Z,6.70
2023-02-13T22:39:01.955Z,6.60
2023-02-13T22:41:30.900Z,6.50
2023-02-13T22:43:59.526Z,6.40
2023-02-13T22:46:30.225Z,6.30
2023-02-13T22:49:00.670Z,6.20
2023-02-13T22:51:30.951Z,6.20
2023-02-13T22:54:00.491Z,6.10
2023-02-13T22:56:30.980Z,6.00
2023-02-13T22:59:00.182Z,5.90
2023-02-13T23:01:29.546Z,5.90
2023-02-13T23:03:58.428Z,5.80
2023-02-13T23:06:28.832Z,5.70
2023-02-13T23:08:57.739Z,5.70
2023-02-13T23:11:46.360Z,5.70
2023-02-13T23:14:15.495Z,5.60
2023-02-13T23:17:01.769Z,5.50
2023-02-13T23:19:30.716Z,5.50
2023-02-13T23:22:00.953Z,5.40
2023-02-13T23:24:30.473Z,5.40
2023-02-13T23:26:59.364Z,5.30
2023-02-13T23:29:27.973Z,5.50
2023-02-13T23:31:56.899Z,5.20
2023-02-13T23:34:25.574Z,5.20
2023-02-13T23:36:54.208Z,5.10
2023-02-13T23:39:24.404Z,5.10
2023-02-13T23:41:52.972Z,5.00
2023-02-13T23:44:21.565Z,5.00
2023-02-13T23:46:50.258Z,4.90
2023-02-13T23:49:18.812Z,4.80
2023-02-13T23:51:47.689Z,4.80
2023-02-13T23:54:17.370Z,4.70
2023-02-13T23:56:47.502Z,4.60
2023-02-13T23:59:17.433Z,4.60
